Main page
Satellite images 15-day forecastsClimateMarine weather Cyclones Lightning AirportsFAQ Newsletter About
Weather : Europe Africa North America South America Asia Australia-Oceania Others
Languages Contact

Liège, Belgium

Bierset

latitude: 50-39N, longitude: 005-27E, elevation: 186 m


METAR: EBLG 222320Z 03004KT 9000 R05R///// NSC 18/17 Q1019 NOSIG
short-TAF: out of date (39011 hours)
long-TAF: EBLG 221720Z 2218/2324 03006KT CAVOK PROB40 TEMPO 2303/2307 3000 BR BKN003 PROB30 TEMPO 2317/2320 SHRA

Time: 01:36 (23:36 UTC)

Current weather observation

The report was made 16 minutes ago, at 23:20 UTC  
Wind 04 kt from the North/Northeast
Temperature 18°C
Humidity 94%
Pressure 1019 hPa
Visibility 9000 m

Change units

Forecast

The report was made 6 hours and 9 minutes ago, at 17:27 UTC  
Forecast valid from 22 at 18 UTC to 23 at 24 UTC
Wind 06 kt from the North/Northeast
Visibility 10 km or more
no clouds below 1500 m and no cumulonimbus
Probability 40% :
Temporary
from 23 at 03 UTC to 23 at 07 UTC
Visibility 3000 m
Broken clouds at a height of 300 ft
mist
Probability 30% :
Temporary
from 23 at 17 UTC to 23 at 20 UTC
rain showers
The information on this site is subject to a disclaimer
Weather : Europe Africa North America South America Asia Australia-Oceania Others
Satellite images 15-day forecastsClimateMarine weather Cyclones Lightning AirportsFAQ Languages Contact Newsletter About